createdAt,value
2022-08-27T05:34:49.644Z,8.52
2022-08-27T05:37:17.552Z,8.10
2022-08-27T05:39:45.512Z,8.27
2022-08-27T05:42:13.536Z,9.10
2022-08-27T05:44:42.098Z,8.32
2022-08-27T05:47:10.491Z,7.88
2022-08-27T05:49:38.869Z,7.65
2022-08-27T05:52:11.613Z,8.68
2022-08-27T05:54:39.883Z,8.80
2022-08-27T05:57:08.149Z,8.18
2022-08-27T05:59:54.374Z,7.85
2022-08-27T06:02:22.529Z,8.55
2022-08-27T06:04:50.977Z,8.70
2022-08-27T06:07:20.461Z,8.70
2022-08-27T06:09:48.438Z,8.15
2022-08-27T06:12:16.349Z,7.85
2022-08-27T06:14:44.260Z,8.60
2022-08-27T06:17:12.130Z,8.15
2022-08-27T06:19:42.378Z,7.93
2022-08-27T06:22:11.133Z,8.20
2022-08-27T06:24:41.439Z,7.50
2022-08-27T06:27:12.356Z,8.40
2022-08-27T06:29:40.967Z,8.02
2022-08-27T06:32:10.085Z,8.13
2022-08-27T06:34:38.884Z,7.95
2022-08-27T06:37:07.466Z,7.47
2022-08-27T06:39:36.270Z,8.00
2022-08-27T06:42:07.515Z,7.63
2022-08-27T06:44:35.467Z,7.18
2022-08-27T06:47:04.680Z,7.00
2022-08-27T06:49:33.834Z,7.13
2022-08-27T06:52:03.398Z,6.80
2022-08-27T06:54:32.299Z,6.65
2022-08-27T06:57:00.998Z,6.47
2022-08-27T06:59:30.319Z,6.00
2022-08-27T07:01:58.572Z,7.10
2022-08-27T07:04:30.749Z,7.43
2022-08-27T07:07:01.367Z,6.72
2022-08-27T07:09:31.983Z,7.00
2022-08-27T07:12:00.249Z,7.40
2022-08-27T07:14:28.330Z,7.32
2022-08-27T07:16:57.587Z,6.65
2022-08-27T07:19:25.472Z,7.07
2022-08-27T07:21:53.368Z,7.22
2022-08-27T07:24:21.701Z,7.75
2022-08-27T07:26:49.635Z,6.95
2022-08-27T07:29:17.796Z,7.10
2022-08-27T07:31:46.006Z,7.07
2022-08-27T07:34:15.698Z,6.70
2022-08-27T07:36:43.608Z,7.78
2022-08-27T07:39:13.883Z,6.95
2022-08-27T07:41:55.606Z,6.53
2022-08-27T07:44:30.983Z,6.70
2022-08-27T07:47:02.543Z,6.47
2022-08-27T07:49:35.052Z,7.40
2022-08-27T07:52:03.191Z,7.68
2022-08-27T07:54:31.148Z,7.63
2022-08-27T07:56:59.251Z,7.88
2022-08-27T07:59:27.817Z,7.20
2022-08-27T08:01:57.012Z,6.57
2022-08-27T08:04:26.635Z,6.85
2022-08-27T08:06:56.668Z,5.90
2022-08-27T08:09:25.228Z,7.00
2022-08-27T08:11:54.166Z,7.20
2022-08-27T08:14:22.167Z,7.20
2022-08-27T08:16:50.115Z,8.10
2022-08-27T08:19:18.255Z,7.00
2022-08-27T08:21:46.164Z,7.18
2022-08-27T08:24:15.432Z,6.53
2022-08-27T08:26:44.331Z,7.32
2022-08-27T08:29:18.063Z,7.68
2022-08-27T08:31:50.134Z,6.63
2022-08-27T08:34:19.317Z,6.80
2022-08-27T08:36:54.011Z,6.28
2022-08-27T08:39:24.124Z,7.93
2022-08-27T08:41:54.915Z,6.38
2022-08-27T08:44:34.072Z,7.45
2022-08-27T08:47:09.510Z,6.68
2022-08-27T08:49:45.400Z,6.45
2022-08-27T08:52:30.441Z,7.10
2022-08-27T08:55:09.800Z,6.80
2022-08-27T08:57:44.205Z,6.43
2022-08-27T09:00:14.725Z,6.45
2022-08-27T09:02:50.370Z,6.65
2022-08-27T09:05:18.622Z,5.85
2022-08-27T09:08:05.057Z,7.53
2022-08-27T09:10:46.571Z,6.80
2022-08-27T09:13:22.652Z,6.88
2022-08-27T09:15:53.222Z,6.30
2022-08-27T09:18:21.120Z,7.25
2022-08-27T09:20:59.208Z,6.78
2022-08-27T09:23:41.188Z,6.47
2022-08-27T09:26:20.596Z,6.15
2022-08-27T09:29:06.430Z,6.25
2022-08-27T09:31:40.656Z,6.78
2022-08-27T09:34:08.593Z,6.28
2022-08-27T09:36:36.640Z,6.28
2022-08-27T09:39:07.385Z,5.80
2022-08-27T09:41:47.786Z,5.63
2022-08-27T09:44:19.322Z,5.65
2022-08-27T09:46:55.451Z,6.28
2022-08-27T09:49:24.225Z,6.97
2022-08-27T09:51:53.956Z,5.75
2022-08-27T09:54:43.854Z,5.15
2022-08-27T09:57:15.444Z,5.97
2022-08-27T09:59:53.940Z,5.63
2022-08-27T10:02:24.102Z,5.07
2022-08-27T10:04:54.046Z,5.22
2022-08-27T10:07:34.840Z,4.47
2022-08-27T10:10:10.897Z,5.00
2022-08-27T10:12:51.967Z,5.03
2022-08-27T10:15:20.087Z,5.13
2022-08-27T10:17:58.086Z,5.25
2022-08-27T10:20:35.241Z,5.70
2022-08-27T10:23:12.824Z,5.25
2022-08-27T10:25:50.219Z,5.53
2022-08-27T10:28:31.897Z,5.47
2022-08-27T10:31:11.534Z,5.35
2022-08-27T10:33:50.152Z,5.53
2022-08-27T10:36:32.336Z,5.93
2022-08-27T10:39:07.619Z,5.70
2022-08-27T10:41:42.920Z,5.35
2022-08-27T10:44:30.308Z,6.90
2022-08-27T10:47:11.029Z,6.60
2022-08-27T10:49:47.816Z,6.32
2022-08-27T10:52:21.276Z,6.70
2022-08-27T10:54:54.554Z,7.30
2022-08-27T10:57:53.899Z,6.53
2022-08-27T11:00:24.425Z,6.40
2022-08-27T11:02:56.236Z,7.72
2022-08-27T11:05:30.060Z,6.80
2022-08-27T11:08:05.302Z,6.30
2022-08-27T11:10:37.481Z,7.70
2022-08-27T11:13:07.899Z,6.78
2022-08-27T11:15:41.489Z,7.57
2022-08-27T11:18:16.812Z,6.78
2022-08-27T11:20:53.746Z,6.95
2022-08-27T11:23:27.210Z,6.43
2022-08-27T11:26:02.122Z,7.07
2022-08-27T11:28:37.582Z,6.55
2022-08-27T11:31:16.068Z,6.55
2022-08-27T11:33:48.521Z,5.78
2022-08-27T11:36:54.018Z,6.47
2022-08-27T11:39:41.139Z,6.95
2022-08-27T11:42:15.227Z,5.90
2022-08-27T11:44:44.967Z,6.05
2022-08-27T11:47:20.281Z,5.68
2022-08-27T11:49:52.119Z,7.07
2022-08-27T11:52:27.142Z,6.20
2022-08-27T11:55:10.724Z,6.03
2022-08-27T11:57:40.197Z,5.93
2022-08-27T12:00:21.377Z,6.47
2022-08-27T12:03:00.762Z,5.80
2022-08-27T12:05:38.079Z,6.13
2022-08-27T12:08:20.300Z,6.00
2022-08-27T12:11:02.467Z,5.82
2022-08-27T12:13:39.103Z,5.72
2022-08-27T12:16:17.686Z,5.75
2022-08-27T12:19:01.172Z,6.18
2022-08-27T12:21:46.338Z,5.57
2022-08-27T12:24:39.481Z,6.28
2022-08-27T12:27:18.255Z,5.60
2022-08-27T12:29:51.062Z,5.70
2022-08-27T12:32:29.855Z,6.88
2022-08-27T12:35:09.112Z,5.53
2022-08-27T12:37:40.479Z,6.07
2022-08-27T12:40:19.477Z,6.78
2022-08-27T12:42:48.945Z,5.43
2022-08-27T12:45:22.892Z,5.72
2022-08-27T12:47:52.398Z,6.00
2022-08-27T12:50:28.560Z,5.78
2022-08-27T12:53:19.170Z,5.70
2022-08-27T12:55:58.098Z,5.43
2022-08-27T12:58:36.585Z,5.45
2022-08-27T13:01:28.439Z,6.13
2022-08-27T13:03:57.767Z,6.00
2022-08-27T13:06:33.057Z,6.10
2022-08-27T13:09:02.860Z,5.18
2022-08-27T13:11:33.190Z,5.43
2022-08-27T13:14:10.618Z,5.32
2022-08-27T13:16:40.215Z,5.50
2022-08-27T13:19:09.533Z,7.50
2022-08-27T13:21:38.905Z,5.30
2022-08-27T13:24:07.928Z,6.10
2022-08-27T13:26:38.997Z,5.53
2022-08-27T13:29:08.517Z,6.53
2022-08-27T13:31:37.294Z,7.07
2022-08-27T13:34:07.026Z,6.07
2022-08-27T13:36:58.049Z,5.60
2022-08-27T13:39:26.931Z,5.63
2022-08-27T13:41:55.795Z,6.05
2022-08-27T13:44:28.082Z,5.13
2022-08-27T13:47:03.273Z,5.03
2022-08-27T13:49:39.659Z,5.60
2022-08-27T13:52:23.241Z,5.22
2022-08-27T13:55:05.890Z,10.45
2022-08-27T13:57:45.620Z,5.30
2022-08-27T14:00:18.172Z,6.13
2022-08-27T14:02:55.897Z,5.40
2022-08-27T14:05:33.814Z,5.68
2022-08-27T14:08:13.940Z,4.70
2022-08-27T14:10:47.251Z,5.13
2022-08-27T14:13:25.674Z,4.55
2022-08-27T14:15:56.708Z,4.72
2022-08-27T14:18:48.046Z,5.03
2022-08-27T14:21:15.703Z,4.88
2022-08-27T14:23:45.058Z,4.55
2022-08-27T14:26:15.011Z,4.75
2022-08-27T14:28:43.181Z,4.80
2022-08-27T14:31:11.701Z,4.72
2022-08-27T14:33:39.707Z,5.07
2022-08-27T14:36:08.712Z,5.07
2022-08-27T14:38:41.034Z,5.95
2022-08-27T14:41:10.625Z,6.18
2022-08-27T14:43:38.868Z,6.03
2022-08-27T14:46:08.837Z,5.53
2022-08-27T14:48:37.384Z,5.70
2022-08-27T14:51:13.192Z,6.07
2022-08-27T14:53:41.272Z,4.30
2022-08-27T14:56:10.673Z,4.55
2022-08-27T14:58:38.829Z,5.18
2022-08-27T15:01:07.233Z,6.20
2022-08-27T15:03:38.993Z,5.22
2022-08-27T15:06:07.441Z,9.02
2022-08-27T15:08:36.929Z,4.70
2022-08-27T15:11:05.403Z,6.00
2022-08-27T15:13:38.379Z,5.97
2022-08-27T15:16:07.015Z,5.63
2022-08-27T15:18:34.913Z,6.00
2022-08-27T15:21:02.994Z,6.20
2022-08-27T15:23:31.027Z,4.65
2022-08-27T15:25:58.952Z,6.03
2022-08-27T15:28:26.838Z,5.68
2022-08-27T15:30:56.186Z,4.85
2022-08-27T15:33:24.160Z,5.55
2022-08-27T15:35:52.252Z,6.68
2022-08-27T15:38:20.140Z,5.40
2022-08-27T15:40:49.227Z,6.03
2022-08-27T15:43:19.245Z,5.82
2022-08-27T15:45:47.124Z,5.13
2022-08-27T15:48:16.368Z,5.57
2022-08-27T15:50:44.497Z,4.97
2022-08-27T15:53:12.414Z,5.20
2022-08-27T15:55:42.348Z,5.55
2022-08-27T15:58:10.781Z,5.47
2022-08-27T16:00:39.841Z,5.40
2022-08-27T16:03:11.514Z,4.95
2022-08-27T16:05:44.459Z,5.45
2022-08-27T16:08:13.247Z,5.57
2022-08-27T16:10:41.518Z,5.78
2022-08-27T16:13:09.409Z,5.82
2022-08-27T16:15:40.542Z,6.10
2022-08-27T16:18:09.350Z,6.13
2022-08-27T16:20:37.233Z,5.68
2022-08-27T16:23:06.501Z,5.70
2022-08-27T16:25:34.554Z,5.38
2022-08-27T16:28:02.449Z,5.53
2022-08-27T16:30:30.868Z,5.93
2022-08-27T16:32:58.861Z,6.22
2022-08-27T16:35:26.779Z,5.47
2022-08-27T16:37:54.700Z,5.55
2022-08-27T16:40:24.114Z,5.60
2022-08-27T16:42:52.970Z,5.40
2022-08-27T16:45:24.142Z,6.00
2022-08-27T16:48:09.796Z,6.38
2022-08-27T16:50:37.983Z,5.57
2022-08-27T16:53:08.464Z,5.63
2022-08-27T16:55:39.186Z,6.10
2022-08-27T16:58:10.513Z,5.63
2022-08-27T17:00:38.942Z,5.70
2022-08-27T17:03:09.285Z,6.07
2022-08-27T17:05:37.564Z,6.93
2022-08-27T17:08:09.513Z,6.70
2022-08-27T17:10:45.683Z,6.53
2022-08-27T17:13:15.757Z,6.45
2022-08-27T17:15:44.106Z,9.10
2022-08-27T17:18:12.256Z,6.95
2022-08-27T17:20:40.333Z,7.13
2022-08-27T17:23:10.945Z,6.90
2022-08-27T17:25:38.857Z,6.97
2022-08-27T17:28:08.199Z,7.70
2022-08-27T17:30:36.166Z,6.80
2022-08-27T17:33:04.171Z,7.57
2022-08-27T17:35:32.068Z,8.43
2022-08-27T17:38:00.053Z,7.50
2022-08-27T17:40:28.152Z,8.35
2022-08-27T17:42:56.103Z,8.40
2022-08-27T17:45:25.368Z,6.82
2022-08-27T17:47:53.230Z,7.25
2022-08-27T17:50:21.132Z,7.47
2022-08-27T17:52:49.075Z,7.35
2022-08-27T17:55:16.968Z,7.95
2022-08-27T17:57:45.259Z,7.18
2022-08-27T18:00:14.882Z,7.72
2022-08-27T18:02:46.681Z,8.75
2022-08-27T18:05:16.644Z,8.57
2022-08-27T18:07:45.851Z,7.65
2022-08-27T18:10:16.154Z,7.70
2022-08-27T18:12:45.884Z,7.90
2022-08-27T18:15:18.918Z,7.88
2022-08-27T18:17:53.225Z,7.97
2022-08-27T18:20:23.515Z,8.07
2022-08-27T18:22:53.449Z,7.78
2022-08-27T18:25:24.704Z,8.27
2022-08-27T18:27:56.784Z,7.80
2022-08-27T18:30:25.857Z,7.50
2022-08-27T18:32:55.652Z,8.68
2022-08-27T18:35:26.341Z,9.07
2022-08-27T18:37:55.098Z,8.02
2022-08-27T18:40:25.261Z,8.18
2022-08-27T18:42:53.554Z,10.40
2022-08-27T18:45:26.582Z,7.82
2022-08-27T18:48:00.092Z,7.80
2022-08-27T18:50:28.441Z,10.07
2022-08-27T18:52:57.916Z,8.35
2022-08-27T18:55:28.650Z,9.82
2022-08-27T18:57:56.655Z,9.75
2022-08-27T19:00:24.902Z,9.88
2022-08-27T19:02:53.707Z,9.60
2022-08-27T19:05:27.139Z,8.07
2022-08-27T19:07:56.147Z,7.82
2022-08-27T19:10:24.924Z,8.07
2022-08-27T19:12:52.972Z,7.90
2022-08-27T19:15:21.366Z,7.38
2022-08-27T19:17:52.145Z,10.30
2022-08-27T19:20:20.424Z,7.55
2022-08-27T19:22:49.964Z,7.97
2022-08-27T19:25:19.152Z,9.48
2022-08-27T19:27:47.782Z,10.30
2022-08-27T19:30:17.276Z,9.13
2022-08-27T19:32:45.925Z,10.57
2022-08-27T19:35:15.242Z,11.10
2022-08-27T19:37:52.759Z,11.23
2022-08-27T19:40:23.013Z,11.43
2022-08-27T19:42:51.415Z,10.00
2022-08-27T19:45:23.718Z,9.23
2022-08-27T19:47:52.855Z,9.52
2022-08-27T19:50:21.527Z,9.27
2022-08-27T19:52:49.804Z,6.55
2022-08-27T19:55:18.113Z,8.10
2022-08-27T19:57:47.869Z,6.07
2022-08-27T20:00:19.332Z,6.68
2022-08-27T20:02:47.447Z,6.72
2022-08-27T20:05:19.714Z,6.68
2022-08-27T20:07:47.924Z,7.78
2022-08-27T20:10:16.410Z,7.93
2022-08-27T20:12:44.623Z,7.57
2022-08-27T20:15:14.576Z,7.93
2022-08-27T20:17:43.694Z,8.27
2022-08-27T20:20:12.141Z,6.80
2022-08-27T20:22:40.788Z,7.50
2022-08-27T20:25:09.595Z,7.68
2022-08-27T20:27:38.321Z,6.70
2022-08-27T20:30:08.223Z,6.68
2022-08-27T20:32:37.537Z,6.40
2022-08-27T20:35:07.068Z,7.07
2022-08-27T20:37:40.143Z,9.10
2022-08-27T20:40:14.403Z,7.60
2022-08-27T20:42:42.336Z,7.65
2022-08-27T20:45:12.304Z,8.27
2022-08-27T20:47:42.622Z,8.70
2022-08-27T20:50:12.863Z,8.30
2022-08-27T20:52:41.609Z,7.30
2022-08-27T20:55:12.218Z,7.75
2022-08-27T20:58:05.981Z,8.05
2022-08-27T21:00:35.267Z,8.00
2022-08-27T21:03:04.660Z,8.82
2022-08-27T21:05:34.775Z,8.07
2022-08-27T21:08:03.198Z,8.63
2022-08-27T21:10:31.132Z,8.43
2022-08-27T21:13:03.280Z,8.73
2022-08-27T21:15:32.906Z,8.27
2022-08-27T21:18:00.760Z,8.10
2022-08-27T21:20:32.206Z,7.82
2022-08-27T21:23:00.575Z,11.05
2022-08-27T21:25:29.304Z,8.25
2022-08-27T21:27:57.959Z,10.60
2022-08-27T21:30:26.462Z,8.10
2022-08-27T21:32:55.809Z,10.10
2022-08-27T21:35:26.476Z,9.10
2022-08-27T21:37:57.405Z,9.82
2022-08-27T21:40:26.411Z,8.98
2022-08-27T21:42:55.133Z,8.88
2022-08-27T21:45:23.453Z,8.35
2022-08-27T21:47:51.895Z,8.20
2022-08-27T21:50:20.765Z,7.95
2022-08-27T21:52:49.455Z,9.15
2022-08-27T21:55:19.500Z,10.25
2022-08-27T21:57:47.386Z,9.68
2022-08-27T22:00:40.510Z,9.02
2022-08-27T22:03:11.104Z,10.07
2022-08-27T22:05:41.303Z,8.40
2022-08-27T22:08:09.631Z,8.80
2022-08-27T22:10:39.512Z,8.70
2022-08-27T22:13:08.146Z,8.10
2022-08-27T22:15:36.954Z,8.52
2022-08-27T22:18:05.552Z,9.32
2022-08-27T22:20:34.000Z,9.65
2022-08-27T22:23:02.323Z,9.48
2022-08-27T22:25:30.351Z,9.18
2022-08-27T22:27:59.899Z,8.68
2022-08-27T22:30:28.021Z,8.30
2022-08-27T22:32:55.947Z,8.40
2022-08-27T22:35:24.307Z,8.73
2022-08-27T22:37:55.522Z,7.97
2022-08-27T22:40:25.890Z,7.80
2022-08-27T22:42:55.673Z,8.07
2022-08-27T22:45:26.030Z,8.27
2022-08-27T22:47:53.945Z,7.97
2022-08-27T22:50:22.915Z,7.30
2022-08-27T22:52:51.235Z,7.40
2022-08-27T22:55:23.783Z,7.60
2022-08-27T22:57:53.908Z,6.65
2022-08-27T23:00:27.120Z,7.20
2022-08-27T23:02:55.549Z,7.83
2022-08-27T23:05:24.316Z,7.27
2022-08-27T23:07:54.780Z,6.93
2022-08-27T23:10:25.258Z,7.77
2022-08-27T23:12:54.633Z,8.23
2022-08-27T23:15:27.392Z,6.67
2022-08-27T23:17:55.532Z,6.73
2022-08-27T23:20:24.359Z,7.50
2022-08-27T23:22:53.435Z,6.37
2022-08-27T23:25:43.263Z,7.37
2022-08-27T23:28:14.780Z,16.87
2022-08-27T23:30:45.167Z,10.73
2022-08-27T23:33:13.456Z,10.33
2022-08-27T23:35:44.487Z,10.47
2022-08-27T23:38:12.685Z,10.57
2022-08-27T23:40:41.029Z,10.40
2022-08-27T23:43:09.017Z,8.23
2022-08-27T23:45:40.438Z,8.10
2022-08-27T23:48:10.718Z,6.90
2022-08-27T23:50:39.080Z,7.73
2022-08-27T23:53:08.036Z,7.50
2022-08-27T23:55:36.375Z,8.03
2022-08-27T23:58:04.755Z,8.00
